Time;durP1;ratioP1;P1;durP2;ratioP2;P2;SDS_P1;SDS_P2;PMS_P1;PMS_P2;Temp;Humidity;BMP_temperature;BMP_pressure;BME280_temperature;BME280_humidity;BME280_pressure;Samples;Min_cycle;Max_cycle;Signal;HPM_P1;HPM_P2
2021/06/18 00:00:49;;;;;;;19.45;17.95;;;20.40;99.90;;;;;;4981097;28;20113;-82
2021/06/18 00:03:16;;;;;;;19.52;17.73;;;20.30;99.90;;;;;;4972000;28;20054;-82
2021/06/18 00:05:43;;;;;;;19.80;18.02;;;20.20;99.90;;;;;;4987230;28;20337;-83
2021/06/18 00:08:10;;;;;;;19.35;17.85;;;20.10;99.90;;;;;;4987854;28;20112;-82
2021/06/18 00:10:37;;;;;;;19.88;18.25;;;20.10;99.90;;;;;;4987209;28;20519;-82
2021/06/18 00:13:04;;;;;;;20.40;18.90;;;20.00;99.90;;;;;;4973922;28;20125;-84
2021/06/18 00:15:31;;;;;;;19.63;17.80;;;20.00;99.90;;;;;;4988363;28;20046;-83
2021/06/18 00:17:59;;;;;;;20.38;18.50;;;19.80;99.90;;;;;;4988037;28;20520;-82
2021/06/18 00:20:26;;;;;;;18.15;16.83;;;19.80;99.90;;;;;;5002047;28;20101;-82
2021/06/18 00:22:53;;;;;;;18.77;17.23;;;19.70;99.90;;;;;;4969513;28;20094;-81
2021/06/18 00:25:19;;;;;;;19.85;18.05;;;19.60;99.90;;;;;;4970245;28;20050;-82
2021/06/18 00:27:46;;;;;;;19.60;17.80;;;19.60;99.90;;;;;;4977668;28;20225;-82
2021/06/18 00:30:14;;;;;;;20.63;18.23;;;19.60;99.90;;;;;;5012353;28;20046;-82
2021/06/18 00:32:42;;;;;;;18.65;17.15;;;19.60;99.90;;;;;;4992512;28;20073;-83
2021/06/18 00:35:09;;;;;;;19.13;17.63;;;19.60;99.90;;;;;;5022321;28;20532;-82
2021/06/18 00:37:36;;;;;;;19.90;18.13;;;19.60;99.90;;;;;;5004369;28;20050;-83
2021/06/18 00:40:07;;;;;;;19.83;18.23;;;19.70;99.90;;;;;;4965287;28;20441;-83
2021/06/18 00:42:34;;;;;;;19.63;18.10;;;19.80;99.90;;;;;;4966671;28;20074;-82
2021/06/18 00:45:01;;;;;;;21.38;19.63;;;19.70;99.90;;;;;;4969931;28;20360;-81
2021/06/18 00:47:29;;;;;;;19.88;18.48;;;19.60;99.90;;;;;;4985829;28;20293;-82
2021/06/18 00:49:56;;;;;;;20.02;18.63;;;19.60;99.90;;;;;;4969168;28;20262;-82
2021/06/18 00:52:23;;;;;;;20.67;19.08;;;19.50;99.90;;;;;;5002035;28;20428;-82
2021/06/18 00:54:50;;;;;;;20.38;18.75;;;19.50;99.90;;;;;;4986052;28;20042;-82
2021/06/18 00:57:18;;;;;;;20.88;19.20;;;19.50;99.90;;;;;;4986084;28;20060;-82
2021/06/18 00:59:46;;;;;;;20.77;19.08;;;19.40;99.90;;;;;;4968975;28;20600;-82
2021/06/18 01:02:13;;;;;;;21.30;19.40;;;19.50;99.90;;;;;;4975524;28;20128;-82
2021/06/18 01:04:41;;;;;;;19.88;18.27;;;19.30;99.90;;;;;;4968975;28;20064;-81
2021/06/18 01:07:17;;;;;;;20.77;19.10;;;19.10;99.90;;;;;;4984950;28;20053;-82
2021/06/18 01:10:06;;;;;;;20.98;19.23;;;19.30;99.90;;;;;;4954467;28;20046;-82
2021/06/18 01:12:46;;;;;;;19.90;18.13;;;19.20;99.90;;;;;;4985479;28;20051;-82
2021/06/18 01:15:33;;;;;;;20.15;18.25;;;19.20;99.90;;;;;;4971292;28;20182;-82
2021/06/18 01:18:03;;;;;;;20.77;18.85;;;19.10;99.90;;;;;;4969723;28;20384;-82
2021/06/18 01:21:08;;;;;;;20.15;18.40;;;19.10;99.90;;;;;;4984341;28;20058;-82
2021/06/18 01:23:43;;;;;;;19.83;18.15;;;19.20;99.90;;;;;;4968013;28;20061;-81
2021/06/18 01:26:22;;;;;;;20.10;18.30;;;19.00;99.90;;;;;;4983820;28;20070;-82
2021/06/18 01:28:57;;;;;;;19.80;18.10;;;19.10;99.90;;;;;;4985458;28;20084;-83
2021/06/18 01:31:36;;;;;;;21.02;19.25;;;19.10;99.90;;;;;;4967555;28;20046;-83
2021/06/18 01:34:18;;;;;;;21.83;19.90;;;19.10;99.90;;;;;;4987256;28;20217;-82
2021/06/18 01:36:50;;;;;;;21.05;19.20;;;19.10;99.90;;;;;;5039268;28;20095;-82
2021/06/18 01:39:18;;;;;;;22.02;20.13;;;18.90;99.90;;;;;;5013380;28;20488;-82
2021/06/18 01:41:47;;;;;;;21.83;19.80;;;18.90;99.90;;;;;;4972229;28;20105;-83
2021/06/18 01:44:16;;;;;;;20.95;19.23;;;18.90;99.90;;;;;;4988559;28;20058;-84
2021/06/18 01:46:46;;;;;;;20.15;18.55;;;18.80;99.90;;;;;;4985272;28;20061;-83
2021/06/18 01:49:14;;;;;;;22.25;20.30;;;18.90;99.90;;;;;;4969901;28;20706;-82
2021/06/18 01:51:43;;;;;;;21.20;19.45;;;18.80;99.90;;;;;;4986718;28;20050;-82
2021/06/18 01:54:13;;;;;;;21.90;19.88;;;18.70;99.90;;;;;;4985968;28;20378;-82
2021/06/18 01:56:41;;;;;;;22.23;20.10;;;18.70;99.90;;;;;;4967000;28;20059;-83
2021/06/18 01:59:08;;;;;;;22.90;21.00;;;18.70;99.90;;;;;;4969197;28;20089;-82
2021/06/18 02:01:39;;;;;;;20.98;19.25;;;18.60;99.90;;;;;;4969880;28;20054;-82
2021/06/18 02:04:08;;;;;;;20.40;18.65;;;18.60;99.90;;;;;;4966579;28;20105;-82
2021/06/18 02:06:37;;;;;;;20.27;18.55;;;18.40;99.90;;;;;;4981446;28;20054;-82
2021/06/18 02:09:06;;;;;;;21.10;19.15;;;18.30;99.90;;;;;;4984614;28;20493;-83
2021/06/18 02:11:37;;;;;;;19.83;18.15;;;18.30;99.90;;;;;;4969605;28;20720;-83
2021/06/18 02:14:08;;;;;;;20.55;18.73;;;18.30;99.90;;;;;;4968977;28;20500;-82
2021/06/18 02:16:38;;;;;;;22.08;20.05;;;18.30;99.90;;;;;;4967627;28;20049;-82
2021/06/18 02:19:08;;;;;;;21.25;19.38;;;18.20;99.90;;;;;;4964524;28;20055;-82
2021/06/18 02:21:35;;;;;;;20.83;19.13;;;18.20;99.90;;;;;;4978943;28;20046;-82
2021/06/18 02:24:04;;;;;;;20.73;18.92;;;18.30;99.90;;;;;;4967624;28;20536;-82
2021/06/18 02:26:31;;;;;;;20.00;18.27;;;18.00;99.90;;;;;;4967077;28;20130;-82
2021/06/18 02:28:58;;;;;;;20.83;18.83;;;18.00;99.90;;;;;;4967939;28;20042;-83
2021/06/18 02:31:28;;;;;;;22.42;20.52;;;17.90;99.90;;;;;;4958720;28;20042;-82
2021/06/18 02:33:55;;;;;;;22.98;20.83;;;17.90;99.90;;;;;;4982177;28;20034;-83
2021/06/18 02:36:22;;;;;;;22.77;20.55;;;17.90;99.90;;;;;;5003763;28;20046;-82
2021/06/18 02:38:50;;;;;;;22.42;20.42;;;18.10;99.90;;;;;;4975887;28;20074;-82
2021/06/18 02:41:17;;;;;;;22.33;20.33;;;18.00;99.90;;;;;;4981726;28;20061;-82
2021/06/18 02:43:44;;;;;;;21.27;19.27;;;17.90;99.90;;;;;;4964978;28;20046;-83
2021/06/18 02:46:24;;;;;;;21.63;19.63;;;17.70;99.90;;;;;;4968464;28;20070;-82
2021/06/18 02:48:57;;;;;;;21.48;19.42;;;17.60;99.90;;;;;;4983617;28;20058;-82
2021/06/18 02:51:48;;;;;;;22.00;19.77;;;17.70;99.90;;;;;;4968653;28;20052;-82
2021/06/18 02:54:31;;;;;;;21.85;19.75;;;17.70;99.90;;;;;;4984561;28;20100;-82
2021/06/18 02:57:07;;;;;;;21.45;19.35;;;17.60;99.90;;;;;;4985226;28;20058;-82
2021/06/18 02:59:57;;;;;;;22.90;20.60;;;17.50;99.90;;;;;;4984877;28;20053;-82
2021/06/18 03:02:30;;;;;;;24.75;22.45;;;17.40;99.90;;;;;;4984938;28;20492;-82
2021/06/18 03:04:58;;;;;;;23.80;21.73;;;17.40;99.90;;;;;;4969040;28;20042;-81
2021/06/18 03:07:28;;;;;;;25.17;22.83;;;17.40;99.90;;;;;;4969428;28;20069;-82
2021/06/18 03:10:00;;;;;;;24.40;22.17;;;17.50;99.90;;;;;;4986716;28;20571;-82
2021/06/18 03:12:29;;;;;;;26.33;23.52;;;17.50;99.90;;;;;;4969945;28;20081;-82
2021/06/18 03:15:02;;;;;;;23.77;21.58;;;17.40;99.90;;;;;;4972532;28;20229;-82
2021/06/18 03:17:31;;;;;;;23.85;21.85;;;17.40;99.90;;;;;;5004246;28;20393;-81
2021/06/18 03:20:01;;;;;;;22.45;20.55;;;17.40;99.90;;;;;;4983018;28;20149;-82
2021/06/18 03:22:32;;;;;;;23.90;21.35;;;17.30;99.90;;;;;;4983138;28;20073;-81
2021/06/18 03:25:02;;;;;;;23.95;21.75;;;17.30;99.90;;;;;;4966689;28;20042;-82
2021/06/18 03:27:32;;;;;;;23.52;21.30;;;17.30;99.90;;;;;;4984580;28;20083;-81
2021/06/18 03:30:00;;;;;;;23.13;21.02;;;17.50;99.90;;;;;;4985552;28;20057;-82
2021/06/18 03:32:28;;;;;;;23.67;21.63;;;17.50;99.90;;;;;;4969137;28;20085;-82
2021/06/18 03:34:56;;;;;;;24.65;22.35;;;17.70;99.90;;;;;;5004122;28;20046;-81
2021/06/18 03:37:24;;;;;;;25.55;22.95;;;17.70;99.90;;;;;;4986498;28;20066;-81
2021/06/18 03:39:52;;;;;;;25.40;23.00;;;17.70;99.90;;;;;;5000163;28;20062;-82
2021/06/18 03:42:19;;;;;;;24.77;22.17;;;17.80;99.90;;;;;;4983735;28;20104;-81
2021/06/18 03:44:48;;;;;;;25.02;22.48;;;17.90;99.90;;;;;;4982309;28;20050;-81
2021/06/18 03:47:16;;;;;;;23.55;21.42;;;17.90;99.90;;;;;;4967118;28;20342;-81
2021/06/18 03:49:45;;;;;;;24.58;22.08;;;17.90;99.90;;;;;;4984155;28;20516;-81
2021/06/18 03:52:12;;;;;;;23.98;21.70;;;17.80;99.90;;;;;;4983859;28;20137;-81
2021/06/18 03:54:39;;;;;;;23.45;21.45;;;17.80;99.90;;;;;;4983670;28;20047;-81
2021/06/18 03:57:07;;;;;;;23.75;21.27;;;17.80;99.90;;;;;;4982888;28;20298;-81
2021/06/18 03:59:36;;;;;;;23.50;20.95;;;17.80;99.90;;;;;;4982805;28;20050;-81
2021/06/18 04:02:03;;;;;;;23.08;21.00;;;17.80;99.90;;;;;;4977857;28;20139;-81
2021/06/18 04:04:32;;;;;;;24.83;22.50;;;17.80;99.90;;;;;;4967201;28;20121;-82
2021/06/18 04:07:01;;;;;;;24.02;22.08;;;17.90;99.90;;;;;;4983085;28;20055;-81
2021/06/18 04:09:28;;;;;;;24.42;22.42;;;18.00;99.90;;;;;;4983751;28;20319;-82
2021/06/18 04:11:55;;;;;;;24.52;22.05;;;18.10;99.90;;;;;;4967454;28;20078;-82
2021/06/18 04:14:28;;;;;;;26.52;23.60;;;18.10;99.90;;;;;;4987161;28;20657;-81
2021/06/18 04:16:55;;;;;;;25.70;23.23;;;18.10;99.90;;;;;;4986823;28;20164;-82
2021/06/18 04:19:24;;;;;;;24.27;22.08;;;18.20;99.90;;;;;;4971221;28;20054;-81
2021/06/18 04:21:52;;;;;;;24.75;22.35;;;18.20;99.90;;;;;;4973248;28;20219;-81
2021/06/18 04:24:18;;;;;;;26.88;24.23;;;18.30;99.90;;;;;;4989348;28;20074;-82
2021/06/18 04:26:45;;;;;;;26.02;23.52;;;18.40;99.90;;;;;;4996452;28;20121;-82
2021/06/18 04:29:12;;;;;;;25.42;23.13;;;18.40;99.90;;;;;;4987141;28;20081;-81
2021/06/18 04:31:39;;;;;;;26.80;23.75;;;18.50;99.90;;;;;;4995638;28;20045;-82
2021/06/18 04:34:07;;;;;;;27.60;25.33;;;18.90;99.90;;;;;;5012104;28;20378;-81
2021/06/18 04:36:37;;;;;;;26.17;23.80;;;19.30;99.90;;;;;;5002832;28;20368;-81
2021/06/18 04:39:07;;;;;;;24.98;22.67;;;19.50;99.90;;;;;;4975989;28;20043;-82
2021/06/18 04:41:35;;;;;;;24.52;22.67;;;19.80;99.90;;;;;;4981058;28;20055;-83
2021/06/18 04:44:03;;;;;;;25.75;23.48;;;20.20;99.90;;;;;;4983850;28;20058;-82
2021/06/18 04:46:31;;;;;;;26.75;24.10;;;20.60;99.90;;;;;;4969701;28;20476;-82
2021/06/18 04:48:58;;;;;;;24.05;21.73;;;20.80;99.90;;;;;;4982784;28;20050;-82
2021/06/18 04:51:25;;;;;;;23.05;21.13;;;20.90;99.90;;;;;;4970103;28;20105;-83
2021/06/18 04:53:53;;;;;;;22.15;19.95;;;21.00;99.90;;;;;;4986906;28;20047;-81
2021/06/18 04:56:21;;;;;;;22.30;20.40;;;21.10;99.90;;;;;;4985186;28;20062;-82
2021/06/18 04:58:48;;;;;;;22.98;21.13;;;21.20;99.90;;;;;;4970340;28;20050;-82
2021/06/18 05:01:15;;;;;;;22.48;20.60;;;21.40;99.90;;;;;;4984444;28;20101;-81
2021/06/18 05:03:42;;;;;;;22.38;20.45;;;21.60;99.90;;;;;;4970006;28;20217;-82
2021/06/18 05:06:09;;;;;;;22.65;20.90;;;21.60;99.90;;;;;;4985556;28;20050;-82
2021/06/18 05:08:36;;;;;;;22.50;20.55;;;21.90;99.90;;;;;;4970262;28;20497;-82
2021/06/18 05:11:03;;;;;;;21.52;19.80;;;22.30;99.90;;;;;;4968109;28;20062;-83
2021/06/18 05:13:30;;;;;;;22.08;20.10;;;22.70;99.90;;;;;;4985539;28;20046;-82
2021/06/18 05:15:57;;;;;;;21.27;19.52;;;23.10;99.90;;;;;;4984756;28;20046;-82
2021/06/18 05:18:30;;;;;;;21.63;19.83;;;23.40;99.90;;;;;;4970671;28;20058;-83
2021/06/18 05:20:57;;;;;;;21.55;19.85;;;23.70;99.90;;;;;;4954076;28;20118;-83
2021/06/18 05:23:24;;;;;;;20.10;18.42;;;24.00;99.90;;;;;;4984899;28;20138;-82
2021/06/18 05:25:53;;;;;;;20.05;18.52;;;24.50;99.90;;;;;;4968973;28;20034;-82
2021/06/18 05:28:21;;;;;;;21.15;19.38;;;24.80;99.90;;;;;;4985500;28;20049;-82
2021/06/18 05:30:47;;;;;;;21.30;19.20;;;25.10;99.90;;;;;;4976312;28;20133;-83
2021/06/18 05:33:15;;;;;;;30.48;19.10;;;25.20;99.90;;;;;;5003545;28;20410;-82
2021/06/18 05:35:44;;;;;;;39.70;20.05;;;25.20;99.90;;;;;;4982686;28;20181;-83
2021/06/18 05:38:12;;;;;;;29.77;19.33;;;25.40;99.90;;;;;;4985230;28;20082;-83
2021/06/18 05:40:42;;;;;;;28.60;19.90;;;25.40;99.90;;;;;;5001211;28;20066;-83
2021/06/18 05:43:10;;;;;;;20.67;18.48;;;25.90;99.90;;;;;;4969986;28;20057;-82
2021/06/18 05:45:40;;;;;;;19.42;17.80;;;26.10;99.90;;;;;;4984818;28;20066;-83
2021/06/18 05:48:07;;;;;;;20.58;18.75;;;26.40;99.90;;;;;;4979150;28;20090;-82
2021/06/18 05:50:34;;;;;;;19.67;18.27;;;26.70;99.90;;;;;;4981514;28;20133;-83
2021/06/18 05:53:02;;;;;;;19.63;17.73;;;26.80;99.90;;;;;;4966733;28;20079;-83
2021/06/18 05:55:28;;;;;;;21.50;19.27;;;27.00;99.90;;;;;;4969689;28;20210;-82
2021/06/18 05:57:55;;;;;;;20.40;18.67;;;27.30;99.90;;;;;;4967947;28;20082;-83
2021/06/18 06:00:22;;;;;;;21.35;19.30;;;27.30;99.90;;;;;;4970078;28;20445;-83
2021/06/18 06:03:10;;;;;;;20.40;18.67;;;27.40;99.90;;;;;;4969595;28;20058;-82
2021/06/18 06:05:38;;;;;;;21.38;19.45;;;27.60;99.90;;;;;;5001229;28;20200;-83
2021/06/18 06:08:10;;;;;;;20.20;18.73;;;27.60;99.90;;;;;;4970540;28;20084;-82
2021/06/18 06:10:45;;;;;;;20.25;18.98;;;27.80;99.90;;;;;;4984973;28;20046;-82
2021/06/18 06:13:12;;;;;;;18.73;17.55;;;28.00;99.90;;;;;;4970163;28;20569;-82
2021/06/18 06:15:39;;;;;;;18.35;17.15;;;28.10;99.90;;;;;;4968916;28;20080;-83
2021/06/18 06:18:06;;;;;;;18.10;16.70;;;28.30;99.90;;;;;;4971088;28;20097;-83
2021/06/18 06:20:38;;;;;;;18.15;17.02;;;28.50;99.90;;;;;;4985921;28;20050;-83
2021/06/18 06:23:05;;;;;;;18.33;16.92;;;28.70;99.90;;;;;;4970618;28;20046;-83
2021/06/18 06:25:32;;;;;;;17.92;16.67;;;28.80;99.90;;;;;;4983625;28;20289;-83
2021/06/18 06:27:59;;;;;;;17.73;16.35;;;29.20;99.90;;;;;;4986124;28;20050;-83
2021/06/18 06:30:26;;;;;;;16.55;15.50;;;29.30;99.90;;;;;;4969209;28;20038;-84
2021/06/18 06:32:53;;;;;;;17.13;15.90;;;29.30;99.90;;;;;;4973608;28;20213;-84
2021/06/18 06:35:21;;;;;;;17.95;16.60;;;29.20;99.90;;;;;;4975629;28;20058;-83
2021/06/18 06:37:48;;;;;;;17.23;16.02;;;28.80;99.90;;;;;;4969780;28;20554;-83
2021/06/18 06:40:16;;;;;;;17.45;16.35;;;28.60;99.90;;;;;;4983639;28;20120;-83
2021/06/18 06:42:43;;;;;;;17.38;16.15;;;28.50;99.90;;;;;;5001297;28;20050;-83
2021/06/18 06:45:11;;;;;;;18.85;17.33;;;28.60;99.90;;;;;;4979705;28;20054;-83
2021/06/18 06:47:37;;;;;;;18.42;16.85;;;28.80;99.90;;;;;;4985442;28;20149;-83
2021/06/18 06:50:05;;;;;;;18.35;16.88;;;28.80;99.90;;;;;;4952976;28;20050;-83
2021/06/18 06:52:31;;;;;;;16.80;15.73;;;28.60;99.90;;;;;;4985047;28;20347;-83
2021/06/18 06:54:58;;;;;;;16.90;15.75;;;28.80;99.90;;;;;;4986040;28;20034;-83
2021/06/18 06:57:26;;;;;;;16.48;15.40;;;29.10;99.90;;;;;;4969094;28;20046;-84
2021/06/18 06:59:52;;;;;;;16.30;15.27;;;29.50;99.90;;;;;;5002119;28;20057;-83
2021/06/18 07:02:20;;;;;;;17.50;16.05;;;29.60;99.90;;;;;;4953388;28;20072;-84
2021/06/18 07:04:47;;;;;;;16.95;15.80;;;29.60;99.90;;;;;;4975093;28;20437;-84
2021/06/18 07:07:14;;;;;;;17.33;16.13;;;29.40;99.90;;;;;;4967513;28;20524;-83
2021/06/18 07:09:41;;;;;;;17.42;16.23;;;29.60;99.90;;;;;;4969933;28;20050;-84
2021/06/18 07:12:09;;;;;;;17.48;16.10;;;29.60;99.90;;;;;;5000356;28;20055;-83
2021/06/18 07:14:39;;;;;;;17.77;16.05;;;29.50;99.90;;;;;;4983055;28;20512;-84
2021/06/18 07:17:07;;;;;;;17.27;16.20;;;29.50;99.90;;;;;;4982700;28;20625;-83
2021/06/18 07:19:34;;;;;;;16.83;15.73;;;29.50;99.90;;;;;;4985823;28;20054;-84
2021/06/18 07:22:02;;;;;;;17.95;16.70;;;29.80;99.90;;;;;;4987258;28;20070;-83
2021/06/18 07:24:30;;;;;;;18.38;17.02;;;30.10;99.90;;;;;;4986733;28;20053;-84
2021/06/18 07:26:57;;;;;;;17.30;16.25;;;30.20;99.90;;;;;;4968733;28;20054;-83
2021/06/18 07:29:26;;;;;;;18.30;17.10;;;30.10;99.90;;;;;;4969547;28;20045;-85
2021/06/18 07:31:54;;;;;;;17.45;16.40;;;30.30;99.90;;;;;;4986157;28;20047;-84
2021/06/18 07:34:22;;;;;;;17.35;16.33;;;30.70;99.90;;;;;;4991683;28;20042;-84
2021/06/18 07:36:49;;;;;;;18.45;17.15;;;30.70;99.90;;;;;;4969455;28;20050;-85
2021/06/18 07:39:16;;;;;;;18.63;17.52;;;30.80;99.90;;;;;;5000838;28;20050;-84
2021/06/18 07:41:43;;;;;;;17.60;16.60;;;30.60;99.90;;;;;;5016902;28;20046;-85
2021/06/18 07:44:10;;;;;;;18.27;16.90;;;30.60;99.90;;;;;;5002716;28;20050;-84
2021/06/18 07:46:37;;;;;;;18.55;16.95;;;30.50;99.90;;;;;;5002805;28;20050;-84
2021/06/18 07:49:04;;;;;;;18.30;16.83;;;30.70;99.90;;;;;;5004515;28;20050;-84
2021/06/18 07:51:35;;;;;;;18.27;17.05;;;31.00;99.90;;;;;;4987142;28;20046;-84
2021/06/18 07:54:03;;;;;;;18.50;17.38;;;31.20;99.90;;;;;;4990302;28;20133;-84
2021/06/18 07:56:33;;;;;;;18.70;17.42;;;31.50;99.90;;;;;;4988562;28;20049;-83
2021/06/18 07:59:00;;;;;;;18.05;16.92;;;31.60;99.90;;;;;;4989935;28;20145;-84
2021/06/18 08:01:27;;;;;;;18.67;17.25;;;31.60;99.90;;;;;;4990058;28;20506;-85
2021/06/18 08:03:54;;;;;;;19.38;17.85;;;31.90;99.90;;;;;;4995609;28;20061;-84
2021/06/18 08:06:21;;;;;;;18.80;17.70;;;31.90;99.90;;;;;;4972847;28;20053;-84
2021/06/18 08:08:48;;;;;;;19.13;17.80;;;31.90;99.90;;;;;;4973500;28;20088;-84
2021/06/18 08:11:15;;;;;;;19.30;17.83;;;31.80;99.90;;;;;;4988912;28;20073;-84
2021/06/18 08:13:42;;;;;;;18.67;17.40;;;31.90;99.90;;;;;;4971378;28;20077;-84
2021/06/18 08:16:09;;;;;;;19.25;17.98;;;31.70;99.90;;;;;;4988126;28;20555;-85
2021/06/18 08:18:38;;;;;;;19.98;18.67;;;31.80;99.90;;;;;;5001734;28;20069;-85
2021/06/18 08:21:07;;;;;;;19.92;18.42;;;31.80;99.90;;;;;;4988450;28;20042;-85
2021/06/18 08:23:34;;;;;;;19.58;18.08;;;32.20;99.90;;;;;;4970895;28;20054;-85
2021/06/18 08:26:01;;;;;;;19.08;17.80;;;32.70;99.90;;;;;;4972189;28;20120;-84
2021/06/18 08:28:28;;;;;;;18.63;17.42;;;32.80;99.90;;;;;;5005683;28;20042;-85
2021/06/18 08:30:56;;;;;;;19.05;17.63;;;33.00;99.90;;;;;;4989230;28;20054;-85
2021/06/18 08:33:23;;;;;;;19.40;18.10;;;33.00;99.90;;;;;;5009687;28;20105;-84
2021/06/18 08:35:50;;;;;;;19.75;18.45;;;33.20;99.90;;;;;;5005405;28;20039;-84
2021/06/18 08:38:18;;;;;;;18.95;17.65;;;32.90;99.90;;;;;;5007527;28;20039;-85
2021/06/18 08:40:45;;;;;;;18.90;17.83;;;32.70;99.90;;;;;;4975116;28;20031;-85
2021/06/18 08:43:12;;;;;;;19.88;18.55;;;33.00;99.90;;;;;;4991886;28;20047;-84
2021/06/18 08:45:38;;;;;;;20.10;18.75;;;33.00;99.90;;;;;;5000508;28;20045;-84
2021/06/18 08:48:06;;;;;;;20.75;19.15;;;33.30;99.90;;;;;;4975089;28;20050;-84
2021/06/18 08:50:33;;;;;;;19.35;18.13;;;33.50;99.90;;;;;;5005887;28;20043;-84
2021/06/18 08:53:02;;;;;;;19.08;17.55;;;33.70;99.90;;;;;;4988245;28;20062;-84
2021/06/18 08:55:31;;;;;;;19.02;17.50;;;33.50;99.90;;;;;;5010102;28;20114;-85
2021/06/18 08:58:03;;;;;;;19.67;18.25;;;32.90;99.90;;;;;;4994863;28;20038;-83
2021/06/18 09:00:32;;;;;;;21.08;18.95;;;32.60;99.90;;;;;;4993395;28;20046;-84
2021/06/18 09:03:00;;;;;;;20.08;18.38;;;32.70;99.90;;;;;;5012182;28;20046;-84
2021/06/18 09:05:27;;;;;;;20.15;18.58;;;33.00;99.90;;;;;;4986215;28;20030;-84
2021/06/18 09:08:04;;;;;;;21.23;19.48;;;33.20;99.90;;;;;;5027989;28;20085;-84
2021/06/18 09:10:37;;;;;;;21.00;19.27;;;33.10;99.90;;;;;;5009071;28;20110;-84
2021/06/18 09:13:12;;;;;;;20.85;19.17;;;33.30;99.90;;;;;;4961526;28;20473;-85
2021/06/18 09:15:43;;;;;;;21.40;19.73;;;33.80;99.90;;;;;;4989545;28;20464;-85
2021/06/18 09:18:26;;;;;;;19.95;18.35;;;33.50;99.90;;;;;;4989178;28;20516;-84
2021/06/18 09:21:11;;;;;;;21.17;19.08;;;33.40;99.90;;;;;;4991906;28;20065;-84
2021/06/18 09:23:41;;;;;;;20.65;18.42;;;33.30;99.90;;;;;;5005559;28;20061;-84
2021/06/18 09:26:25;;;;;;;20.52;18.60;;;33.30;99.90;;;;;;4985210;28;20066;-84
2021/06/18 09:29:16;;;;;;;21.05;19.10;;;33.30;99.90;;;;;;4985630;28;20054;-86
2021/06/18 09:31:48;;;;;;;20.77;19.05;;;33.50;99.90;;;;;;4984897;28;20050;-84
2021/06/18 09:34:31;;;;;;;21.15;19.13;;;33.60;99.90;;;;;;4979519;28;20070;-84
2021/06/18 09:37:25;;;;;;;19.73;18.40;;;33.60;99.90;;;;;;4969111;28;20049;-84
2021/06/18 09:40:02;;;;;;;21.75;19.92;;;33.60;99.90;;;;;;4982010;28;20194;-84
2021/06/18 09:42:39;;;;;;;22.25;20.45;;;33.80;99.90;;;;;;4966259;28;20059;-85
2021/06/18 09:45:09;;;;;;;;;;;33.50;99.90;;;;;;4972731;28;20516;-84
2021/06/18 09:47:38;;;;;;;23.27;20.90;;;33.40;99.90;;;;;;4968508;28;19922;-84
2021/06/18 09:50:27;;;;;;;22.08;20.05;;;33.50;99.90;;;;;;4985408;28;20481;-83
2021/06/18 09:53:13;;;;;;;23.75;21.73;;;33.20;99.90;;;;;;4949073;28;20055;-85
2021/06/18 09:55:45;;;;;;;21.45;19.90;;;33.00;99.90;;;;;;4938314;28;20539;-84
2021/06/18 09:58:13;;;;;;;22.55;20.50;;;33.10;99.90;;;;;;4970113;28;20448;-86
2021/06/18 10:00:40;;;;;;;22.00;19.90;;;32.90;99.90;;;;;;4975259;28;20081;-85
2021/06/18 10:03:11;;;;;;;22.38;20.48;;;33.00;99.90;;;;;;5005392;28;20039;-84
2021/06/18 10:05:39;;;;;;;22.38;20.42;;;32.90;99.90;;;;;;4987653;28;20057;-85
2021/06/18 10:08:06;;;;;;;23.80;21.10;;;32.80;99.90;;;;;;4985584;28;20516;-84
2021/06/18 10:10:35;;;;;;;21.35;19.73;;;32.90;99.90;;;;;;4984855;28;20050;-85
2021/06/18 10:13:03;;;;;;;22.27;20.20;;;33.00;99.90;;;;;;4986030;28;20042;-85
2021/06/18 10:15:36;;;;;;;21.90;19.70;;;33.00;99.90;;;;;;4968035;28;20395;-85
2021/06/18 10:18:10;;;;;;;20.98;18.98;;;33.20;99.90;;;;;;4985162;28;20509;-85
2021/06/18 10:20:36;;;;;;;21.80;19.80;;;33.70;99.90;;;;;;5000594;28;20046;-84
2021/06/18 10:23:12;;;;;;;21.85;20.02;;;33.80;99.90;;;;;;4984131;28;20129;-85
2021/06/18 10:25:54;;;;;;;21.17;19.48;;;33.40;99.90;;;;;;4983504;28;20096;-86
2021/06/18 10:28:25;;;;;;;19.88;18.58;;;32.90;99.90;;;;;;4984798;28;20053;-84
2021/06/18 10:30:54;;;;;;;21.67;19.95;;;32.90;99.90;;;;;;4967678;28;20066;-84
2021/06/18 10:33:27;;;;;;;20.50;18.60;;;32.80;99.90;;;;;;4991248;28;20054;-84
2021/06/18 10:36:25;;;;;;;18.35;16.75;;;32.70;99.90;;;;;;4968200;28;20073;-84
2021/06/18 10:39:09;;;;;;;21.45;19.40;;;32.50;99.90;;;;;;4964652;28;20050;-84
2021/06/18 10:41:45;;;;;;;19.77;17.98;;;31.90;99.90;;;;;;4982172;28;20508;-84
2021/06/18 10:44:12;;;;;;;21.80;19.60;;;31.50;99.90;;;;;;5000887;28;20254;-83
2021/06/18 10:46:42;;;;;;;20.58;18.85;;;31.30;99.90;;;;;;4983290;28;20073;-83
2021/06/18 10:49:11;;;;;;;21.92;19.75;;;31.10;99.90;;;;;;4983208;28;20070;-83
2021/06/18 10:51:50;;;;;;;21.42;19.65;;;30.80;99.90;;;;;;4968006;28;20048;-83
2021/06/18 10:54:30;;;;;;;22.70;20.65;;;30.60;99.90;;;;;;4966822;28;20077;-83
2021/06/18 10:56:58;;;;;;;23.20;21.17;;;30.30;99.90;;;;;;4982274;28;20074;-83
2021/06/18 10:59:31;;;;;;;23.20;21.15;;;30.20;99.90;;;;;;4968964;28;20050;-83
2021/06/18 11:02:00;;;;;;;23.90;22.00;;;30.40;99.90;;;;;;4982613;28;20081;-83
2021/06/18 11:04:38;;;;;;;22.98;21.15;;;30.80;99.90;;;;;;4982068;28;20047;-82
2021/06/18 11:07:26;;;;;;;23.80;21.58;;;31.40;99.90;;;;;;4976029;28;20041;-83
2021/06/18 11:09:55;;;;;;;21.92;20.10;;;31.70;99.90;;;;;;4968375;28;20316;-84
2021/06/18 11:12:22;;;;;;;23.92;21.67;;;32.30;99.90;;;;;;5000470;28;20050;-83
2021/06/18 11:14:57;;;;;;;21.95;20.35;;;32.70;99.90;;;;;;4983872;28;20531;-83
2021/06/18 11:17:52;;;;;;;24.30;21.95;;;33.20;99.90;;;;;;4957971;28;20145;-84
2021/06/18 11:20:34;;;;;;;22.35;20.42;;;33.20;99.90;;;;;;4982299;28;20050;-84
2021/06/18 11:23:06;;;;;;;24.00;21.67;;;33.20;99.90;;;;;;4970630;28;20555;-84
2021/06/18 11:25:42;;;;;;;23.52;21.55;;;33.60;99.90;;;;;;4986731;28;20413;-85
2021/06/18 11:28:22;;;;;;;22.58;20.73;;;33.80;99.90;;;;;;4988587;28;20046;-84
2021/06/18 11:30:56;;;;;;;22.83;20.90;;;33.90;99.90;;;;;;4970907;28;20418;-85
2021/06/18 11:33:35;;;;;;;22.95;21.42;;;33.70;99.90;;;;;;4977257;28;20339;-84
2021/06/18 11:36:03;;;;;;;23.67;21.45;;;33.80;99.90;;;;;;4963178;28;20059;-84
2021/06/18 11:38:31;;;;;;;23.48;21.48;;;34.00;99.90;;;;;;4987546;28;20145;-84
2021/06/18 11:41:00;;;;;;;22.17;20.38;;;34.10;99.90;;;;;;5003162;28;20042;-84
2021/06/18 11:43:29;;;;;;;22.77;20.98;;;34.00;99.90;;;;;;4988116;28;20575;-84
2021/06/18 11:45:56;;;;;;;22.23;20.35;;;34.10;99.90;;;;;;4991698;28;20683;-84
2021/06/18 11:48:24;;;;;;;21.95;20.23;;;34.10;99.90;;;;;;4969797;28;20475;-84
2021/06/18 11:50:52;;;;;;;23.38;21.63;;;33.90;99.90;;;;;;4986322;28;20094;-83
2021/06/18 11:53:23;;;;;;;21.90;20.25;;;33.90;99.90;;;;;;4956064;28;20133;-85
2021/06/18 11:56:03;;;;;;;23.30;21.52;;;34.20;99.90;;;;;;4988339;28;20239;-85
2021/06/18 11:58:34;;;;;;;23.35;21.30;;;34.00;99.90;;;;;;4987313;28;20153;-84
2021/06/18 12:01:14;;;;;;;21.98;20.30;;;33.90;99.90;;;;;;4986450;28;20057;-84
2021/06/18 12:03:43;;;;;;;22.65;20.63;;;33.60;99.90;;;;;;4971235;28;20054;-84
2021/06/18 12:06:31;;;;;;;24.25;21.85;;;33.60;99.90;;;;;;4986871;28;20394;-83
2021/06/18 12:09:12;;;;;;;24.55;22.15;;;33.70;99.90;;;;;;4972363;28;20389;-84
2021/06/18 12:11:57;;;;;;;21.95;20.48;;;33.50;99.90;;;;;;4986612;28;20487;-85
2021/06/18 12:14:24;;;;;;;23.35;21.45;;;33.20;99.90;;;;;;4972126;28;20050;-84
2021/06/18 12:16:52;;;;;;;22.70;20.92;;;33.50;99.90;;;;;;4970642;28;20129;-85
2021/06/18 12:19:23;;;;;;;22.92;21.13;;;33.80;99.90;;;;;;4987863;28;20047;-85
2021/06/18 12:21:57;;;;;;;23.48;21.70;;;33.80;99.90;;;;;;4969799;28;20053;-86
2021/06/18 12:24:33;;;;;;;21.52;19.73;;;33.50;99.90;;;;;;4987067;28;20077;-84
2021/06/18 12:27:03;;;;;;;22.95;21.10;;;33.50;99.90;;;;;;4989735;28;20054;-84
2021/06/18 12:29:31;;;;;;;23.98;21.85;;;33.20;99.90;;;;;;5011933;28;20061;-83
2021/06/18 12:31:59;;;;;;;24.13;22.23;;;33.10;99.90;;;;;;5010726;28;20058;-84
2021/06/18 12:34:28;;;;;;;25.17;23.15;;;33.00;99.90;;;;;;4998213;28;20062;-84
2021/06/18 12:37:05;;;;;;;23.90;22.10;;;32.80;99.90;;;;;;4966763;28;20056;-83
2021/06/18 12:40:07;;;;;;;23.85;21.48;;;32.80;99.90;;;;;;4969808;28;20112;-83
2021/06/18 12:42:47;;;;;;;23.25;21.05;;;32.90;99.90;;;;;;4972925;28;20536;-84
2021/06/18 12:45:26;;;;;;;23.10;21.13;;;32.90;99.90;;;;;;4980134;28;20058;-85